Startpagina
METAR-TAF:

METAR-TAF

Vliegvelden :

Sirri, Iran

breedte: 25-54-34N, lengte: 054-32-22E, hoogte: 13 m

Actueel weer

Dit bericht is 8 uur en het 21 minuten geleden gemaakt, om 15:00 UTC
Wind 6 kt uit het noorden
Temperatuur 24°C
Vochtigheid 89%
Druk 1016 hPa
Zicht: 2000 m
nevel

METAR: OIBS 231500Z 01006KT 2000 BR NSC 24/22 Q1016

Tijdstip: 02:51 (23:21 UTC)


TAF: ontbreekt

Waarnemingen en weersverwachtingen van meer dan 4000 vliegvelden (METAR en TAF).

De beschikbare stations zijn de gele en rode punten op de kaart.

Ga met uw muis naar het station om de naam te zien.

Klik dan om waarnemingen en weersverwachtingen te zien.

kaart wijzigen: klik op de groene knoppen met een zwart kruis om in te zoomen, op de groene knop met een streepje om uit te zoomen of op de groene pijlen voor aangrenzende kaarten.


METAR-TAF: